Grovertown, Indiana
Current Conditions -  °F | °C
As of 6:15 PM on Friday 21 Nov 2014 (Local Time) from KOXI Reporting Station
Clear Clear  
Wind Chill: 16°   Ceiling: Unl
Heat Index: 25°   Visibility: 10mi
Dew Point: 12°   Wind: 8mph
Humidity: 57%   Direction: 160°SSE
Pressure: 30.35"   Gusts: NA
Location:  41.37°N, 86.5°W
Report Text: KOXI 220015Z AUTO 16007KT 10SM CLR M04/M11 A3035 RMK AO1 T10401113
Loading
Personal Weather Stations






























Interactive Weather Map New forecast layout! Learn more

10-Day Weather Forecast

Advertisements
Track Severe Weather on mobile